Time;durP1;ratioP1;P1;durP2;ratioP2;P2;SDS_P1;SDS_P2;PMS_P1;PMS_P2;Temp;Humidity;BMP_temperature;BMP_pressure;BME280_temperature;BME280_humidity;BME280_pressure;Samples;Min_cycle;Max_cycle;Signal;HPM_P1;HPM_P2
2022/07/11 00:02:12;;;;;;;6.67;4.90;;;18.60;99.90;;;;;;5034533;28;20619;-74
2022/07/11 00:04:40;;;;;;;4.33;4.13;;;18.50;99.90;;;;;;5034634;28;20646;-74
2022/07/11 00:07:07;;;;;;;7.27;4.00;;;18.50;99.90;;;;;;5037135;28;20611;-73
2022/07/11 00:09:33;;;;;;;4.53;4.13;;;18.50;99.90;;;;;;5036628;28;20604;-73
2022/07/11 00:12:00;;;;;;;4.20;4.00;;;18.50;99.90;;;;;;5035891;28;20736;-73
2022/07/11 00:14:27;;;;;;;4.50;4.20;;;18.50;99.90;;;;;;5035352;28;20616;-74
2022/07/11 00:16:54;;;;;;;3.90;3.80;;;18.50;99.90;;;;;;5035918;28;20630;-73
2022/07/11 00:19:21;;;;;;;5.17;4.60;;;18.50;99.90;;;;;;5036535;28;20612;-73
2022/07/11 00:21:49;;;;;;;5.23;4.83;;;18.50;99.90;;;;;;5036455;28;20615;-73
2022/07/11 00:24:17;;;;;;;4.60;4.30;;;18.40;99.90;;;;;;5035854;28;20624;-73
2022/07/11 00:26:44;;;;;;;5.03;4.37;;;18.40;99.90;;;;;;5035976;28;20632;-73
2022/07/11 00:29:10;;;;;;;4.93;4.60;;;18.30;99.90;;;;;;5035556;28;20655;-74
2022/07/11 00:31:36;;;;;;;3.90;3.67;;;18.30;99.90;;;;;;5035773;28;20604;-74
2022/07/11 00:34:05;;;;;;;4.30;3.63;;;18.30;99.90;;;;;;5037372;28;20624;-74
2022/07/11 00:36:32;;;;;;;4.50;3.90;;;18.20;99.90;;;;;;5034927;28;20608;-74
2022/07/11 00:38:59;;;;;;;7.23;4.40;;;18.20;99.90;;;;;;5034857;28;20681;-73
2022/07/11 00:41:25;;;;;;;5.63;4.00;;;18.30;99.90;;;;;;5055447;28;21140;-73
2022/07/11 00:43:58;;;;;;;4.13;3.83;;;18.30;99.90;;;;;;5055205;28;21184;-73
2022/07/11 00:46:27;;;;;;;4.20;3.73;;;18.30;99.90;;;;;;5057479;28;20797;-73
2022/07/11 00:48:53;;;;;;;4.27;4.00;;;18.30;99.90;;;;;;5055710;28;20666;-72
2022/07/11 00:51:22;;;;;;;4.40;3.90;;;18.30;99.90;;;;;;5055395;28;20603;-73
2022/07/11 00:53:56;;;;;;;4.30;3.90;;;18.30;99.90;;;;;;5063846;28;20615;-73
2022/07/11 00:56:26;;;;;;;4.17;3.97;;;18.20;99.90;;;;;;5033143;28;20638;-73
2022/07/11 00:58:56;;;;;;;4.60;4.30;;;18.20;99.90;;;;;;5055782;28;20591;-73
2022/07/11 01:01:23;;;;;;;4.20;3.90;;;18.10;99.90;;;;;;5055415;28;20733;-72
2022/07/11 01:03:50;;;;;;;6.10;4.50;;;18.10;99.90;;;;;;5055601;28;20610;-73
2022/07/11 01:06:16;;;;;;;4.63;4.00;;;18.20;99.90;;;;;;5037853;28;20915;-74
2022/07/11 01:08:44;;;;;;;4.57;4.27;;;18.20;99.90;;;;;;5055294;28;20680;-74
2022/07/11 01:11:13;;;;;;;4.37;4.10;;;18.10;99.90;;;;;;5055083;28;20614;-73
2022/07/11 01:13:40;;;;;;;3.80;3.60;;;17.90;99.90;;;;;;5037931;28;20758;-73
2022/07/11 01:16:12;;;;;;;4.30;4.10;;;17.80;99.90;;;;;;5037842;28;20615;-73
2022/07/11 01:18:44;;;;;;;6.90;3.70;;;17.60;99.90;;;;;;5055540;28;20954;-72
2022/07/11 01:21:21;;;;;;;5.20;4.83;;;17.60;99.90;;;;;;5055078;28;20579;-73
2022/07/11 01:23:48;;;;;;;4.03;3.83;;;17.50;99.90;;;;;;5055040;28;20619;-73
2022/07/11 01:26:19;;;;;;;5.07;4.30;;;17.60;99.90;;;;;;5055025;28;20628;-73
2022/07/11 01:28:47;;;;;;;4.97;4.57;;;17.50;99.90;;;;;;5054784;28;20662;-73
2022/07/11 01:31:13;;;;;;;4.67;4.20;;;17.50;99.90;;;;;;5037707;28;20610;-74
2022/07/11 01:33:40;;;;;;;4.63;4.33;;;17.50;99.90;;;;;;5054376;28;20623;-73
2022/07/11 01:36:07;;;;;;;4.17;3.90;;;17.40;99.90;;;;;;5057392;28;20702;-73
2022/07/11 01:38:34;;;;;;;3.87;3.63;;;17.30;99.90;;;;;;5054315;28;20626;-73
2022/07/11 01:41:01;;;;;;;4.47;4.13;;;17.30;99.90;;;;;;5032599;28;21021;-74
2022/07/11 01:43:28;;;;;;;4.17;3.70;;;17.20;99.90;;;;;;5034282;28;20612;-74
2022/07/11 01:45:56;;;;;;;4.93;4.57;;;17.20;99.90;;;;;;5035408;28;20627;-73
2022/07/11 01:48:22;;;;;;;4.10;3.90;;;17.20;99.90;;;;;;5034471;28;21014;-73
2022/07/11 01:50:49;;;;;;;4.70;4.40;;;17.10;99.90;;;;;;5035007;28;20689;-74
2022/07/11 01:53:16;;;;;;;4.10;3.90;;;17.00;99.90;;;;;;5035087;28;20646;-74
2022/07/11 01:55:44;;;;;;;4.17;3.87;;;16.90;99.90;;;;;;5034966;28;20630;-73
2022/07/11 01:58:10;;;;;;;4.57;4.13;;;16.70;99.90;;;;;;5037067;28;20627;-73
2022/07/11 02:00:37;;;;;;;4.77;4.47;;;16.60;99.90;;;;;;5035098;28;20933;-73
2022/07/11 02:03:04;;;;;;;4.70;4.33;;;16.50;99.90;;;;;;5033715;28;20623;-74
2022/07/11 02:05:32;;;;;;;4.47;4.27;;;16.50;99.90;;;;;;5034240;28;20631;-73
2022/07/11 02:08:13;;;;;;;6.13;4.70;;;16.40;99.90;;;;;;5034421;28;20710;-72
2022/07/11 02:10:51;;;;;;;5.63;5.23;;;16.40;99.90;;;;;;5035012;28;20572;-72
2022/07/11 02:13:21;;;;;;;4.33;4.03;;;16.40;99.90;;;;;;5034086;28;20628;-72
2022/07/11 02:15:50;;;;;;;5.00;4.60;;;16.40;99.90;;;;;;5033743;28;20612;-73
2022/07/11 02:18:17;;;;;;;4.93;4.60;;;16.40;99.90;;;;;;5033348;28;20691;-74
2022/07/11 02:20:53;;;;;;;5.93;4.47;;;16.40;99.90;;;;;;5034609;28;20615;-73
2022/07/11 02:23:20;;;;;;;7.00;4.37;;;16.30;99.90;;;;;;5034808;28;20583;-73
2022/07/11 02:25:47;;;;;;;5.10;4.70;;;16.20;99.90;;;;;;5032805;28;20620;-73
2022/07/11 02:28:15;;;;;;;8.70;5.03;;;16.20;99.90;;;;;;5034338;28;20651;-73
2022/07/11 02:30:43;;;;;;;5.80;5.30;;;16.20;99.90;;;;;;5034025;28;21166;-73
2022/07/11 02:33:13;;;;;;;4.50;4.10;;;16.20;99.90;;;;;;5034399;28;20676;-73
2022/07/11 02:35:40;;;;;;;5.00;4.60;;;16.10;99.90;;;;;;5035277;28;21080;-73
2022/07/11 02:38:06;;;;;;;4.60;4.20;;;16.00;99.90;;;;;;5037008;28;20726;-73
2022/07/11 02:40:33;;;;;;;5.00;4.70;;;15.90;99.90;;;;;;5048007;28;20654;-73
2022/07/11 02:42:59;;;;;;;4.47;4.17;;;15.90;99.90;;;;;;5053216;28;21137;-73
2022/07/11 02:45:26;;;;;;;5.63;5.13;;;15.90;99.90;;;;;;5053864;28;21169;-73
2022/07/11 02:47:52;;;;;;;7.30;4.70;;;15.90;99.90;;;;;;5054123;28;20667;-74
2022/07/11 02:50:19;;;;;;;5.60;5.20;;;15.90;99.90;;;;;;5053953;28;20630;-72
2022/07/11 02:52:45;;;;;;;5.20;4.70;;;15.80;99.90;;;;;;5035852;28;20627;-73
2022/07/11 02:55:12;;;;;;;5.60;4.87;;;15.80;99.90;;;;;;5023621;28;20593;-72
2022/07/11 02:57:39;;;;;;;5.90;5.30;;;15.90;99.90;;;;;;5058364;28;21266;-72
2022/07/11 03:00:09;;;;;;;6.77;5.77;;;15.80;99.90;;;;;;5039695;28;21159;-73
2022/07/11 03:02:35;;;;;;;5.67;5.37;;;15.60;99.90;;;;;;5058058;28;20602;-74
2022/07/11 03:05:02;;;;;;;5.63;5.23;;;15.40;99.90;;;;;;5040156;28;20623;-73
2022/07/11 03:07:29;;;;;;;5.00;4.70;;;15.40;99.90;;;;;;5058746;28;20630;-73
2022/07/11 03:09:56;;;;;;;6.17;5.57;;;15.40;99.90;;;;;;5058042;28;21017;-73
2022/07/11 03:12:22;;;;;;;8.40;5.47;;;15.30;99.90;;;;;;5038993;28;20977;-73
2022/07/11 03:14:49;;;;;;;5.77;5.27;;;15.30;99.90;;;;;;5057999;28;20623;-73
2022/07/11 03:17:18;;;;;;;5.60;5.10;;;15.30;99.90;;;;;;5057777;28;20615;-73
2022/07/11 03:19:46;;;;;;;5.70;5.30;;;15.40;99.90;;;;;;5057726;28;21149;-74
2022/07/11 03:22:14;;;;;;;5.50;5.00;;;15.40;99.90;;;;;;5040813;28;20611;-74
2022/07/11 03:24:41;;;;;;;5.77;4.73;;;15.30;99.90;;;;;;5057732;28;21020;-73
2022/07/11 03:27:10;;;;;;;5.33;5.03;;;15.50;99.90;;;;;;5040608;28;20970;-74
2022/07/11 03:29:37;;;;;;;5.30;4.80;;;15.50;99.90;;;;;;5057713;28;20651;-74
2022/07/11 03:32:04;;;;;;;5.60;5.27;;;15.50;99.90;;;;;;5041133;28;20589;-74
2022/07/11 03:34:30;;;;;;;5.93;5.00;;;15.50;99.90;;;;;;5056819;28;20597;-73
2022/07/11 03:36:57;;;;;;;5.93;5.40;;;15.40;99.90;;;;;;5057348;28;20664;-73
2022/07/11 03:39:23;;;;;;;5.60;5.27;;;15.40;99.90;;;;;;5057776;28;20662;-73
2022/07/11 03:41:50;;;;;;;5.57;5.13;;;15.30;99.90;;;;;;5057998;28;20550;-73
2022/07/11 03:44:16;;;;;;;5.40;4.90;;;15.40;99.90;;;;;;5039958;28;20615;-74
2022/07/11 03:46:43;;;;;;;5.40;5.10;;;15.40;99.90;;;;;;5057453;28;20683;-73
2022/07/11 03:49:09;;;;;;;5.07;4.67;;;15.50;99.90;;;;;;5057677;28;20993;-74
2022/07/11 03:51:36;;;;;;;10.97;5.60;;;15.60;99.90;;;;;;5040410;28;20603;-73
2022/07/11 03:54:03;;;;;;;5.47;5.07;;;15.70;99.90;;;;;;5059071;28;20970;-74
2022/07/11 03:56:30;;;;;;;6.40;5.20;;;15.80;99.90;;;;;;5042079;28;20639;-73
2022/07/11 03:58:56;;;;;;;6.90;5.47;;;15.90;99.90;;;;;;5040229;28;20646;-73
2022/07/11 04:01:23;;;;;;;5.23;4.83;;;15.90;99.90;;;;;;5057607;28;20610;-73
2022/07/11 04:03:49;;;;;;;5.50;5.00;;;16.00;99.90;;;;;;5057177;28;20661;-74
2022/07/11 04:06:16;;;;;;;4.87;4.43;;;16.00;99.90;;;;;;5055546;28;20627;-73
2022/07/11 04:08:42;;;;;;;4.80;4.50;;;16.00;99.90;;;;;;5057458;28;20776;-74
2022/07/11 04:11:10;;;;;;;7.80;4.80;;;16.10;99.90;;;;;;5056657;28;20603;-74
2022/07/11 04:13:36;;;;;;;5.10;4.57;;;16.10;99.90;;;;;;5039037;28;21020;-74
2022/07/11 04:16:03;;;;;;;7.77;4.60;;;16.10;99.90;;;;;;5056825;28;20592;-74
2022/07/11 04:18:30;;;;;;;8.40;4.93;;;16.20;99.90;;;;;;5056374;28;20622;-73
2022/07/11 04:20:56;;;;;;;4.53;4.30;;;16.20;99.90;;;;;;5056456;28;20627;-74
2022/07/11 04:23:23;;;;;;;4.90;3.90;;;16.20;99.90;;;;;;5056418;28;20975;-73
2022/07/11 04:25:51;;;;;;;5.50;4.33;;;16.30;99.90;;;;;;5056626;28;20959;-73
2022/07/11 04:28:18;;;;;;;4.80;4.40;;;16.40;99.90;;;;;;5055998;28;21007;-73
2022/07/11 04:30:44;;;;;;;7.13;4.70;;;16.30;99.90;;;;;;5056084;28;20603;-73
2022/07/11 04:33:12;;;;;;;5.07;4.63;;;16.30;99.90;;;;;;5055579;28;20623;-73
2022/07/11 04:35:38;;;;;;;5.60;4.93;;;16.40;99.90;;;;;;5038617;28;20615;-72
2022/07/11 04:38:04;;;;;;;6.10;5.10;;;16.40;99.90;;;;;;5038580;28;20665;-74
2022/07/11 04:40:31;;;;;;;5.97;5.47;;;16.40;99.90;;;;;;5034995;28;20685;-74
2022/07/11 04:42:57;;;;;;;5.30;4.80;;;16.30;99.90;;;;;;5036570;28;21009;-73
2022/07/11 04:45:24;;;;;;;11.70;4.90;;;16.40;99.90;;;;;;5036064;28;20616;-73
2022/07/11 04:47:50;;;;;;;5.27;4.87;;;16.40;99.90;;;;;;5036000;28;20616;-72
2022/07/11 04:50:17;;;;;;;5.60;5.20;;;16.60;99.90;;;;;;5036372;28;20662;-73
2022/07/11 04:52:43;;;;;;;5.90;4.80;;;16.70;99.90;;;;;;5035710;28;20627;-74
2022/07/11 04:55:12;;;;;;;5.87;5.30;;;16.80;99.90;;;;;;5042209;28;20615;-73
2022/07/11 04:57:40;;;;;;;5.27;4.20;;;16.90;99.90;;;;;;5048631;28;20655;-74
2022/07/11 05:00:11;;;;;;;7.30;4.87;;;17.00;99.90;;;;;;5041771;28;20616;-76
2022/07/11 05:02:38;;;;;;;10.30;5.07;;;17.10;99.90;;;;;;5035974;28;20726;-75
2022/07/11 05:05:07;;;;;;;4.90;4.60;;;17.10;99.90;;;;;;5049012;28;20647;-75
2022/07/11 05:07:34;;;;;;;6.03;5.43;;;17.10;99.90;;;;;;5052119;28;20617;-75
2022/07/11 05:10:02;;;;;;;6.70;5.17;;;17.10;99.90;;;;;;5044136;28;20659;-75
2022/07/11 05:12:28;;;;;;;6.27;4.37;;;17.10;99.90;;;;;;5035108;28;21048;-75
2022/07/11 05:14:55;;;;;;;6.03;4.97;;;17.20;99.90;;;;;;5036068;28;20612;-75
2022/07/11 05:17:23;;;;;;;5.40;4.70;;;17.30;99.90;;;;;;5036533;28;20638;-75
2022/07/11 05:19:49;;;;;;;6.60;4.43;;;17.50;99.90;;;;;;5036035;28;20982;-75
2022/07/11 05:22:16;;;;;;;6.53;4.60;;;17.50;99.90;;;;;;5035764;28;21162;-75
2022/07/11 05:24:43;;;;;;;7.20;4.53;;;17.50;99.90;;;;;;5037261;28;20627;-74
2022/07/11 05:27:10;;;;;;;6.63;4.67;;;17.70;99.90;;;;;;5051185;28;20607;-76
2022/07/11 05:29:37;;;;;;;5.10;4.40;;;17.80;99.90;;;;;;5033464;28;20675;-75
2022/07/11 05:32:04;;;;;;;4.63;4.33;;;18.00;99.90;;;;;;5032665;28;20612;-76
2022/07/11 05:34:34;;;;;;;5.77;4.47;;;17.70;99.90;;;;;;5043959;28;20751;-74
2022/07/11 05:37:01;;;;;;;4.97;4.60;;;17.60;99.90;;;;;;5040320;28;20612;-75
2022/07/11 05:39:27;;;;;;;5.07;4.67;;;17.70;99.90;;;;;;5034725;28;20801;-75
2022/07/11 05:41:54;;;;;;;5.07;4.15;;;17.90;99.90;;;;;;5035248;28;21241;-75
2022/07/11 05:44:20;;;;;;;5.03;4.60;;;18.00;99.90;;;;;;5035540;28;20569;-74
2022/07/11 05:46:46;;;;;;;4.03;3.70;;;18.20;99.90;;;;;;5033486;28;20623;-74
2022/07/11 05:49:13;;;;;;;4.90;4.60;;;18.30;99.90;;;;;;5034499;28;20709;-73
2022/07/11 05:51:39;;;;;;;9.13;4.33;;;18.50;99.90;;;;;;5033652;28;20963;-74
2022/07/11 05:54:06;;;;;;;4.70;4.30;;;18.40;99.90;;;;;;5035604;28;20615;-75
2022/07/11 05:56:33;;;;;;;5.37;3.93;;;18.50;99.90;;;;;;5035218;28;20620;-74
2022/07/11 05:58:59;;;;;;;4.17;3.97;;;18.60;99.90;;;;;;5034716;28;20612;-73
2022/07/11 06:01:26;;;;;;;4.63;4.13;;;18.70;99.90;;;;;;5035271;28;20620;-75
2022/07/11 06:03:52;;;;;;;4.80;4.03;;;18.80;99.90;;;;;;5035438;28;20604;-74
2022/07/11 06:06:19;;;;;;;4.67;4.27;;;18.70;99.90;;;;;;5035406;28;20611;-74
2022/07/11 06:08:45;;;;;;;3.97;3.77;;;18.80;99.90;;;;;;5034268;28;20668;-76
2022/07/11 06:11:14;;;;;;;4.23;3.97;;;18.90;99.90;;;;;;5035024;28;20612;-75
2022/07/11 06:13:42;;;;;;;4.00;3.70;;;19.00;99.90;;;;;;5033803;28;20620;-75
2022/07/11 06:16:09;;;;;;;4.00;3.80;;;19.20;99.90;;;;;;5033573;28;20616;-75
2022/07/11 06:18:37;;;;;;;6.50;3.47;;;19.10;99.90;;;;;;5033484;28;21186;-75
2022/07/11 06:21:04;;;;;;;5.03;4.17;;;19.10;99.90;;;;;;5035066;28;20603;-75
2022/07/11 06:23:31;;;;;;;4.33;3.27;;;19.20;99.90;;;;;;5034901;28;20631;-74
2022/07/11 06:25:58;;;;;;;4.83;3.87;;;19.30;99.90;;;;;;5034572;28;20627;-74
2022/07/11 06:28:24;;;;;;;13.33;3.97;;;19.40;99.90;;;;;;5035894;28;20689;-77
2022/07/11 06:30:51;;;;;;;4.20;3.90;;;19.60;99.90;;;;;;5041452;28;21189;-74
2022/07/11 06:33:20;;;;;;;3.53;3.30;;;19.90;99.90;;;;;;5042222;28;20607;-75
2022/07/11 06:35:49;;;;;;;4.07;3.80;;;20.20;99.90;;;;;;5040191;28;20607;-76
2022/07/11 06:38:17;;;;;;;5.00;3.87;;;20.10;99.90;;;;;;5038805;28;20662;-75
2022/07/11 06:40:43;;;;;;;6.00;3.50;;;20.40;99.90;;;;;;5055817;28;20638;-74
2022/07/11 06:43:10;;;;;;;5.70;3.60;;;19.80;99.90;;;;;;5060306;28;20698;-75
2022/07/11 06:45:37;;;;;;;4.07;3.50;;;20.10;99.90;;;;;;5060407;28;20623;-75
2022/07/11 06:48:05;;;;;;;6.50;3.90;;;20.10;99.90;;;;;;5059856;28;20628;-75
2022/07/11 06:50:32;;;;;;;3.53;3.33;;;20.30;99.90;;;;;;5060640;28;20666;-76
2022/07/11 06:52:58;;;;;;;4.33;3.93;;;20.00;99.90;;;;;;5060735;28;20614;-74
2022/07/11 06:55:25;;;;;;;3.07;2.87;;;20.10;99.90;;;;;;5060702;28;20993;-77
2022/07/11 06:57:52;;;;;;;3.70;3.37;;;19.90;99.90;;;;;;5061042;28;20638;-76
2022/07/11 07:00:18;;;;;;;3.20;3.00;;;19.80;99.90;;;;;;5061385;28;20599;-76
2022/07/11 07:02:45;;;;;;;4.40;3.63;;;20.00;99.90;;;;;;5043150;28;21157;-75
2022/07/11 07:05:12;;;;;;;5.50;3.70;;;19.90;99.90;;;;;;5026238;28;21169;-75
2022/07/11 07:07:40;;;;;;;3.10;2.87;;;20.20;99.90;;;;;;5060976;28;20614;-76
2022/07/11 07:10:08;;;;;;;4.53;4.00;;;20.20;99.90;;;;;;5060789;28;21046;-76
2022/07/11 07:12:39;;;;;;;3.93;3.53;;;20.50;99.90;;;;;;5060225;28;20611;-75
2022/07/11 07:15:06;;;;;;;6.47;4.77;;;20.70;99.90;;;;;;5060579;28;20579;-77
2022/07/11 07:17:33;;;;;;;4.10;3.80;;;20.20;99.90;;;;;;5060829;28;20611;-75
2022/07/11 07:19:59;;;;;;;3.80;3.60;;;20.60;99.90;;;;;;5061281;28;20625;-75
2022/07/11 07:22:26;;;;;;;4.10;3.83;;;20.70;99.90;;;;;;5060801;28;20676;-76
2022/07/11 07:24:52;;;;;;;3.90;3.70;;;20.90;99.90;;;;;;5061207;28;20619;-76
2022/07/11 07:27:19;;;;;;;4.07;3.67;;;20.80;99.90;;;;;;5060830;28;20614;-74
2022/07/11 07:29:45;;;;;;;4.23;3.90;;;20.80;99.90;;;;;;5060981;28;20673;-75
2022/07/11 07:32:12;;;;;;;4.37;3.97;;;20.80;99.90;;;;;;5043039;28;20657;-76
2022/07/11 07:34:38;;;;;;;5.33;3.93;;;20.80;99.90;;;;;;5043491;28;20619;-76
2022/07/11 07:37:05;;;;;;;4.20;3.87;;;20.90;99.90;;;;;;5060668;28;20618;-76
2022/07/11 07:39:31;;;;;;;10.67;4.03;;;21.20;99.90;;;;;;5059211;28;20670;-75
2022/07/11 07:41:58;;;;;;;3.87;3.67;;;21.60;99.90;;;;;;5056646;28;20618;-74
2022/07/11 07:44:24;;;;;;;4.00;3.10;;;21.80;99.90;;;;;;5057074;28;20611;-75
2022/07/11 07:46:51;;;;;;;5.93;4.40;;;22.00;99.90;;;;;;5056847;28;21157;-75
2022/07/11 07:49:17;;;;;;;6.70;3.60;;;22.20;99.90;;;;;;5056971;28;20655;-76
2022/07/11 07:51:44;;;;;;;5.27;3.80;;;22.00;99.90;;;;;;5056696;28;20599;-75
2022/07/11 07:54:11;;;;;;;4.70;4.27;;;21.90;99.90;;;;;;5056633;28;20607;-75
2022/07/11 07:56:37;;;;;;;4.90;4.10;;;21.80;99.90;;;;;;5056899;28;21078;-75
2022/07/11 07:59:03;;;;;;;9.37;3.93;;;21.80;99.90;;;;;;5057109;28;20591;-75
2022/07/11 08:01:36;;;;;;;4.13;3.73;;;22.20;99.90;;;;;;5057553;28;21184;-76
2022/07/11 08:04:07;;;;;;;4.53;4.23;;;22.40;99.90;;;;;;5040306;28;20623;-75
2022/07/11 08:06:34;;;;;;;4.70;4.40;;;22.10;99.90;;;;;;5057445;28;21053;-76
2022/07/11 08:09:02;;;;;;;4.00;3.70;;;22.10;99.90;;;;;;5023571;28;20718;-75
2022/07/11 08:11:30;;;;;;;4.77;3.70;;;21.70;99.90;;;;;;5038104;28;20611;-76
2022/07/11 08:13:57;;;;;;;5.17;3.87;;;21.90;99.90;;;;;;5056918;28;20653;-76
2022/07/11 08:16:26;;;;;;;4.90;4.50;;;22.50;99.90;;;;;;5057409;28;20607;-76
2022/07/11 08:18:55;;;;;;;5.03;4.23;;;23.10;99.90;;;;;;5056644;28;20619;-75
2022/07/11 08:21:22;;;;;;;5.60;4.90;;;23.10;99.90;;;;;;5056242;28;20607;-76
2022/07/11 08:23:49;;;;;;;4.43;4.13;;;23.10;99.90;;;;;;5057015;28;20603;-75
2022/07/11 08:26:15;;;;;;;4.90;4.70;;;22.80;99.90;;;;;;5039387;28;20664;-74
2022/07/11 08:28:42;;;;;;;5.03;4.63;;;23.00;99.90;;;;;;5057075;28;20626;-75
2022/07/11 08:31:08;;;;;;;7.77;4.23;;;22.80;99.90;;;;;;5057154;28;20716;-75
2022/07/11 08:33:35;;;;;;;7.60;4.87;;;22.90;99.90;;;;;;5055617;28;20611;-76
2022/07/11 08:36:01;;;;;;;5.60;4.50;;;22.90;99.90;;;;;;5038850;28;20614;-76
2022/07/11 08:38:28;;;;;;;5.27;4.77;;;23.70;99.90;;;;;;5021571;28;20984;-74
2022/07/11 08:40:54;;;;;;;4.37;4.07;;;23.70;99.90;;;;;;5055762;28;20650;-74
2022/07/11 08:43:31;;;;;;;4.80;4.50;;;22.90;99.90;;;;;;5056529;28;20649;-74
2022/07/11 08:45:58;;;;;;;4.40;4.00;;;23.10;99.90;;;;;;5055952;28;20631;-75
2022/07/11 08:48:25;;;;;;;6.30;3.97;;;23.80;99.90;;;;;;5056510;28;20971;-75
2022/07/11 08:50:52;;;;;;;9.93;4.30;;;24.10;99.90;;;;;;5056312;28;20655;-74
2022/07/11 08:53:19;;;;;;;5.67;5.17;;;24.40;99.90;;;;;;5056816;28;20606;-75
2022/07/11 08:55:46;;;;;;;4.30;3.90;;;24.30;99.90;;;;;;5039771;28;20972;-73
2022/07/11 08:58:13;;;;;;;4.33;4.03;;;24.10;99.90;;;;;;5057425;28;20718;-69
2022/07/11 09:00:42;;;;;;;4.37;4.17;;;24.10;99.90;;;;;;5056430;28;20619;-75
2022/07/11 09:03:13;;;;;;;4.33;4.13;;;23.80;99.90;;;;;;5055376;28;20623;-77
2022/07/11 09:05:40;;;;;;;4.30;4.10;;;23.70;99.90;;;;;;5056785;28;20572;-75
2022/07/11 09:08:06;;;;;;;4.53;4.20;;;24.10;99.90;;;;;;5039397;28;20619;-75
2022/07/11 09:10:33;;;;;;;4.43;4.23;;;23.80;99.90;;;;;;5055559;28;20712;-75
2022/07/11 09:13:06;;;;;;;4.00;3.70;;;23.20;99.90;;;;;;5056334;28;21106;-76
2022/07/11 09:15:43;;;;;;;4.20;3.93;;;23.80;99.90;;;;;;5055327;28;20622;-77
2022/07/11 09:18:30;;;;;;;6.20;3.60;;;24.00;99.90;;;;;;5055524;28;20615;-75
2022/07/11 09:26:34;;;;;;;5.00;4.60;;;23.70;99.90;;;;;;5056024;28;21014;-75
2022/07/11 09:29:05;;;;;;;6.10;5.50;;;24.30;99.90;;;;;;5055453;28;20627;-73
2022/07/11 09:31:33;;;;;;;6.23;4.40;;;24.20;99.90;;;;;;5055916;28;20675;-74
2022/07/11 09:34:01;;;;;;;4.83;4.37;;;24.60;99.90;;;;;;5056055;28;20675;-74
2022/07/11 09:36:52;;;;;;;4.27;4.17;;;24.50;99.90;;;;;;5057238;28;20599;-78
2022/07/11 09:39:29;;;;;;;5.67;4.73;;;25.00;99.90;;;;;;5037548;28;20658;-75
2022/07/11 09:41:56;;;;;;;6.17;5.57;;;24.50;99.90;;;;;;5055228;28;20574;-75
2022/07/11 09:44:28;;;;;;;4.90;4.60;;;24.70;99.90;;;;;;5055154;28;20611;-75
2022/07/11 09:46:58;;;;;;;5.67;5.30;;;24.70;99.90;;;;;;5054954;28;20679;-75
2022/07/11 09:49:33;;;;;;;6.10;5.10;;;24.50;99.90;;;;;;5055430;28;20563;-75
2022/07/11 09:52:26;;;;;;;4.00;3.90;;;24.70;99.90;;;;;;5055434;28;20638;-75
2022/07/11 09:54:57;;;;;;;3.97;3.77;;;25.00;99.90;;;;;;5050697;28;20638;-75
2022/07/11 09:57:39;;;;;;;5.47;4.40;;;24.90;99.90;;;;;;5055353;28;20631;-77
2022/07/11 10:00:11;;;;;;;7.20;4.40;;;24.70;99.90;;;;;;5053972;28;20626;-76
2022/07/11 10:02:38;;;;;;;4.07;3.90;;;25.00;99.90;;;;;;5054432;28;21246;-75
2022/07/11 10:05:05;;;;;;;4.70;4.40;;;25.30;99.90;;;;;;5054757;28;20599;-75
2022/07/11 10:07:32;;;;;;;5.07;4.70;;;24.70;99.90;;;;;;5054794;28;20611;-74
2022/07/11 10:10:00;;;;;;;4.73;4.40;;;25.20;99.90;;;;;;5055134;28;20658;-74
2022/07/11 10:12:29;;;;;;;4.13;3.93;;;25.00;99.90;;;;;;5055383;28;20610;-75
2022/07/11 10:14:56;;;;;;;4.80;4.50;;;24.90;99.90;;;;;;5054532;28;21193;-74
2022/07/11 10:17:26;;;;;;;5.20;4.67;;;24.90;99.90;;;;;;5036952;28;20698;-73
2022/07/11 10:20:08;;;;;;;4.50;4.30;;;25.30;99.90;;;;;;5055294;28;20619;-74
2022/07/11 10:23:02;;;;;;;4.60;4.30;;;25.50;99.90;;;;;;5054281;28;20583;-73
2022/07/11 10:25:45;;;;;;;4.63;4.33;;;25.80;99.90;;;;;;5054316;28;20582;-74
2022/07/11 10:28:30;;;;;;;4.30;4.10;;;25.50;99.90;;;;;;5054408;28;20961;-74
2022/07/11 10:30:59;;;;;;;6.03;4.33;;;25.60;99.90;;;;;;5053762;28;20662;-74
2022/07/11 10:33:28;;;;;;;5.27;4.97;;;25.40;99.90;;;;;;5054020;28;20615;-73
2022/07/11 10:35:56;;;;;;;5.77;5.27;;;25.80;99.90;;;;;;5053919;28;20634;-75
2022/07/11 10:38:23;;;;;;;4.80;4.50;;;26.10;99.90;;;;;;5054531;28;20607;-75
2022/07/11 10:40:56;;;;;;;5.30;4.97;;;25.60;99.90;;;;;;5054351;28;20647;-75
2022/07/11 10:43:26;;;;;;;4.40;4.10;;;25.90;99.90;;;;;;5055525;28;20572;-77
2022/07/11 10:46:11;;;;;;;6.63;5.33;;;25.50;99.90;;;;;;5055236;28;21020;-76
2022/07/11 10:48:59;;;;;;;5.67;5.17;;;25.50;99.90;;;;;;5038143;28;20637;-76
2022/07/11 10:51:44;;;;;;;5.90;5.50;;;25.60;99.90;;;;;;5038727;28;20659;-75
2022/07/11 10:54:27;;;;;;;4.77;4.50;;;25.60;99.90;;;;;;5055776;28;21022;-76
2022/07/11 10:57:31;;;;;;;5.30;4.90;;;26.10;99.90;;;;;;5053832;28;20655;-77
2022/07/11 11:00:12;;;;;;;5.17;4.77;;;26.50;99.90;;;;;;5055860;28;20599;-76
2022/07/11 11:03:05;;;;;;;6.47;6.07;;;26.20;99.90;;;;;;5037514;28;20623;-77
2022/07/11 11:05:52;;;;;;;5.60;5.10;;;26.60;99.90;;;;;;5056920;28;20710;-74
2022/07/11 11:08:38;;;;;;;5.13;4.80;;;26.80;99.90;;;;;;5036377;28;20685;-75
2022/07/11 11:11:06;;;;;;;4.93;4.63;;;26.70;99.90;;;;;;5053698;28;21254;-76
2022/07/11 11:13:37;;;;;;;5.30;4.80;;;26.70;99.90;;;;;;5036584;28;20616;-76
2022/07/11 11:16:22;;;;;;;5.33;4.97;;;26.80;99.90;;;;;;5057608;28;20682;-76
2022/07/11 11:18:48;;;;;;;4.93;4.60;;;26.70;99.90;;;;;;5057326;28;20607;-75
2022/07/11 11:21:16;;;;;;;11.00;5.93;;;27.00;99.90;;;;;;5057982;28;20615;-76
2022/07/11 11:24:01;;;;;;;4.90;4.60;;;27.00;99.90;;;;;;5040327;28;20980;-75
2022/07/11 11:26:53;;;;;;;5.10;4.80;;;27.30;99.90;;;;;;5063120;28;20618;-75
2022/07/11 11:29:22;;;;;;;5.80;5.37;;;27.20;99.90;;;;;;5061133;28;20615;-75
2022/07/11 11:31:57;;;;;;;5.77;5.30;;;27.90;99.90;;;;;;5039244;28;20678;-75
2022/07/11 11:34:27;;;;;;;5.30;5.00;;;27.60;99.90;;;;;;5062034;28;20574;-76
2022/07/11 11:36:59;;;;;;;5.70;5.40;;;28.20;99.90;;;;;;5059845;28;20698;-77
2022/07/11 11:39:35;;;;;;;5.53;5.23;;;27.70;99.90;;;;;;5021536;28;20659;-77
2022/07/11 11:42:07;;;;;;;5.30;5.10;;;28.00;99.90;;;;;;5039957;28;21170;-76
2022/07/11 11:44:47;;;;;;;5.00;4.80;;;28.50;99.90;;;;;;5036959;28;20635;-77
2022/07/11 11:47:14;;;;;;;5.80;5.40;;;27.90;99.90;;;;;;5037208;28;20699;-76
2022/07/11 11:49:43;;;;;;;5.50;5.30;;;28.90;99.90;;;;;;5038116;28;20627;-76
2022/07/11 11:52:19;;;;;;;5.67;5.30;;;28.30;99.90;;;;;;5043515;28;20719;-78
2022/07/11 11:54:53;;;;;;;5.90;5.40;;;28.50;99.90;;;;;;5044574;28;20643;-77
2022/07/11 11:57:28;;;;;;;5.40;5.17;;;28.00;99.90;;;;;;5024327;28;20738;-78
2022/07/11 11:59:56;;;;;;;5.60;5.30;;;29.00;99.90;;;;;;5038236;28;20624;-75
2022/07/11 12:02:28;;;;;;;5.40;5.23;;;29.30;99.90;;;;;;5036217;28;20626;-75
2022/07/11 12:04:56;;;;;;;5.47;5.20;;;30.20;99.90;;;;;;5037108;28;20616;-76
2022/07/11 12:07:31;;;;;;;5.73;5.50;;;30.40;99.90;;;;;;5037270;28;20610;-76
2022/07/11 12:10:03;;;;;;;5.90;5.60;;;30.50;99.90;;;;;;5034919;28;20724;-75
2022/07/11 12:12:44;;;;;;;6.17;5.87;;;30.40;99.90;;;;;;5035873;28;21075;-74
2022/07/11 12:15:29;;;;;;;6.00;5.70;;;31.10;99.90;;;;;;5035406;28;20638;-73
2022/07/11 12:17:59;;;;;;;5.80;5.60;;;29.60;99.90;;;;;;5035484;28;20604;-74
2022/07/11 12:20:40;;;;;;;6.27;5.97;;;29.80;99.90;;;;;;5035176;28;20659;-74
2022/07/11 12:23:12;;;;;;;6.10;5.90;;;30.30;99.90;;;;;;5035844;28;20608;-73
2022/07/11 12:25:39;;;;;;;7.23;6.83;;;30.40;99.90;;;;;;5035512;28;20607;-73
2022/07/11 12:28:08;;;;;;;6.77;6.47;;;30.60;99.90;;;;;;5034110;28;20968;-73
2022/07/11 12:30:35;;;;;;;6.50;6.10;;;30.20;99.90;;;;;;5034643;28;20629;-72
2022/07/11 12:33:06;;;;;;;7.07;6.57;;;29.30;99.90;;;;;;5034983;28;20627;-74
2022/07/11 12:35:32;;;;;;;6.87;6.47;;;28.50;99.90;;;;;;5036826;28;21043;-74
2022/07/11 12:37:59;;;;;;;8.07;7.47;;;28.30;99.90;;;;;;5040772;28;20711;-76
2022/07/11 12:40:26;;;;;;;6.87;6.53;;;28.80;99.90;;;;;;5049733;28;20739;-75
2022/07/11 12:42:56;;;;;;;7.73;7.23;;;29.90;99.90;;;;;;5021100;28;20611;-74
2022/07/11 12:45:31;;;;;;;8.53;8.10;;;28.40;99.90;;;;;;5056654;28;20587;-76
2022/07/11 12:47:58;;;;;;;7.40;7.10;;;28.20;99.90;;;;;;5056360;28;20567;-76
2022/07/11 12:50:26;;;;;;;7.77;7.33;;;29.20;99.90;;;;;;5055514;28;20757;-75
2022/07/11 12:52:55;;;;;;;7.00;6.60;;;30.40;99.90;;;;;;5056169;28;20611;-75
2022/07/11 12:55:34;;;;;;;7.17;6.60;;;30.00;99.90;;;;;;5055996;28;20586;-75
2022/07/11 12:58:10;;;;;;;7.17;6.63;;;29.10;99.90;;;;;;5055902;28;20614;-74
2022/07/11 13:01:00;;;;;;;6.90;6.60;;;30.40;99.90;;;;;;5055384;28;20631;-74
2022/07/11 13:03:35;;;;;;;6.60;6.30;;;31.00;99.90;;;;;;5055434;28;20576;-74